sensor_id;sensor_type;location;lat;lon;timestamp;P1;durP1;ratioP1;P2;durP2;ratioP2
57535;SDS011;43361;49.790;8.960;2022-12-08T00:07:40;8.15;;;3.70;;
57535;SDS011;43361;49.790;8.960;2022-12-08T00:18:00;6.15;;;3.33;;
57535;SDS011;43361;49.790;8.960;2022-12-08T00:28:01;6.18;;;3.28;;
57535;SDS011;43361;49.790;8.960;2022-12-08T00:38:03;5.07;;;2.85;;
57535;SDS011;43361;49.790;8.960;2022-12-08T00:48:04;4.65;;;2.95;;
57535;SDS011;43361;49.790;8.960;2022-12-08T00:58:05;4.22;;;2.80;;
57535;SDS011;43361;49.790;8.960;2022-12-08T01:08:06;4.47;;;2.90;;
57535;SDS011;43361;49.790;8.960;2022-12-08T01:18:08;4.03;;;2.40;;
57535;SDS011;43361;49.790;8.960;2022-12-08T01:28:08;4.78;;;2.67;;
57535;SDS011;43361;49.790;8.960;2022-12-08T01:38:10;4.47;;;2.42;;
57535;SDS011;43361;49.790;8.960;2022-12-08T01:48:12;4.00;;;2.35;;
57535;SDS011;43361;49.790;8.960;2022-12-08T01:58:15;5.20;;;2.53;;
57535;SDS011;43361;49.790;8.960;2022-12-08T02:08:16;3.67;;;2.20;;
57535;SDS011;43361;49.790;8.960;2022-12-08T02:18:25;5.05;;;2.55;;
57535;SDS011;43361;49.790;8.960;2022-12-08T02:28:35;4.13;;;2.45;;
57535;SDS011;43361;49.790;8.960;2022-12-08T02:38:42;3.63;;;2.15;;
57535;SDS011;43361;49.790;8.960;2022-12-08T02:48:44;4.22;;;2.22;;
57535;SDS011;43361;49.790;8.960;2022-12-08T02:58:51;3.33;;;2.25;;
57535;SDS011;43361;49.790;8.960;2022-12-08T03:08:56;3.13;;;2.13;;
57535;SDS011;43361;49.790;8.960;2022-12-08T03:19:00;4.07;;;2.00;;
57535;SDS011;43361;49.790;8.960;2022-12-08T03:29:02;3.60;;;1.92;;
57535;SDS011;43361;49.790;8.960;2022-12-08T03:39:05;3.50;;;2.13;;
57535;SDS011;43361;49.790;8.960;2022-12-08T03:49:05;3.08;;;1.90;;
57535;SDS011;43361;49.790;8.960;2022-12-08T03:59:07;2.47;;;1.98;;
57535;SDS011;43361;49.790;8.960;2022-12-08T04:09:08;3.42;;;1.77;;
57535;SDS011;43361;49.790;8.960;2022-12-08T04:19:09;3.38;;;1.80;;
57535;SDS011;43361;49.790;8.960;2022-12-08T04:29:10;4.43;;;2.00;;
57535;SDS011;43361;49.790;8.960;2022-12-08T04:39:11;2.60;;;1.65;;
57535;SDS011;43361;49.790;8.960;2022-12-08T04:49:12;2.25;;;1.50;;
57535;SDS011;43361;49.790;8.960;2022-12-08T04:59:14;2.17;;;1.50;;
57535;SDS011;43361;49.790;8.960;2022-12-08T05:09:14;3.28;;;1.90;;
57535;SDS011;43361;49.790;8.960;2022-12-08T05:29:16;2.20;;;1.50;;
57535;SDS011;43361;49.790;8.960;2022-12-08T05:39:16;2.60;;;1.50;;
57535;SDS011;43361;49.790;8.960;2022-12-08T05:49:18;1.73;;;1.20;;
57535;SDS011;43361;49.790;8.960;2022-12-08T05:59:18;2.65;;;1.40;;
57535;SDS011;43361;49.790;8.960;2022-12-08T06:09:20;2.42;;;1.52;;
57535;SDS011;43361;49.790;8.960;2022-12-08T06:19:20;2.75;;;1.60;;
57535;SDS011;43361;49.790;8.960;2022-12-08T06:29:22;3.28;;;1.70;;
57535;SDS011;43361;49.790;8.960;2022-12-08T06:39:23;2.85;;;1.42;;
57535;SDS011;43361;49.790;8.960;2022-12-08T06:49:24;7.50;;;2.60;;
57535;SDS011;43361;49.790;8.960;2022-12-08T06:59:25;8.60;;;3.05;;
57535;SDS011;43361;49.790;8.960;2022-12-08T07:09:27;12.45;;;3.17;;
57535;SDS011;43361;49.790;8.960;2022-12-08T07:19:27;13.55;;;4.15;;
57535;SDS011;43361;49.790;8.960;2022-12-08T07:29:29;16.30;;;4.60;;
57535;SDS011;43361;49.790;8.960;2022-12-08T07:39:29;22.55;;;4.93;;
57535;SDS011;43361;49.790;8.960;2022-12-08T07:49:31;14.35;;;5.30;;
57535;SDS011;43361;49.790;8.960;2022-12-08T07:59:32;17.27;;;5.38;;
57535;SDS011;43361;49.790;8.960;2022-12-08T08:09:34;20.77;;;5.38;;
57535;SDS011;43361;49.790;8.960;2022-12-08T08:19:34;16.85;;;6.50;;
57535;SDS011;43361;49.790;8.960;2022-12-08T08:29:36;18.23;;;5.97;;
57535;SDS011;43361;49.790;8.960;2022-12-08T08:39:36;20.55;;;6.32;;
57535;SDS011;43361;49.790;8.960;2022-12-08T08:49:38;20.58;;;6.40;;
57535;SDS011;43361;49.790;8.960;2022-12-08T08:59:38;20.52;;;5.88;;
57535;SDS011;43361;49.790;8.960;2022-12-08T09:09:40;17.75;;;5.30;;
57535;SDS011;43361;49.790;8.960;2022-12-08T09:19:41;16.20;;;5.72;;
57535;SDS011;43361;49.790;8.960;2022-12-08T09:29:42;14.30;;;5.10;;
57535;SDS011;43361;49.790;8.960;2022-12-08T09:39:43;15.25;;;6.15;;
57535;SDS011;43361;49.790;8.960;2022-12-08T09:49:47;11.63;;;5.13;;
57535;SDS011;43361;49.790;8.960;2022-12-08T09:59:49;9.75;;;4.35;;
57535;SDS011;43361;49.790;8.960;2022-12-08T10:09:54;10.70;;;4.22;;
57535;SDS011;43361;49.790;8.960;2022-12-08T10:19:58;10.30;;;3.97;;
57535;SDS011;43361;49.790;8.960;2022-12-08T10:30:01;9.75;;;4.63;;
57535;SDS011;43361;49.790;8.960;2022-12-08T10:40:04;11.70;;;4.72;;
57535;SDS011;43361;49.790;8.960;2022-12-08T10:50:09;9.88;;;4.10;;
57535;SDS011;43361;49.790;8.960;2022-12-08T11:00:16;10.45;;;4.28;;
57535;SDS011;43361;49.790;8.960;2022-12-08T11:10:19;18.00;;;4.85;;
57535;SDS011;43361;49.790;8.960;2022-12-08T11:20:21;30.67;;;10.95;;
57535;SDS011;43361;49.790;8.960;2022-12-08T11:30:24;40.53;;;15.88;;
57535;SDS011;43361;49.790;8.960;2022-12-08T11:40:25;46.78;;;16.65;;
57535;SDS011;43361;49.790;8.960;2022-12-08T11:50:30;39.35;;;16.17;;
57535;SDS011;43361;49.790;8.960;2022-12-08T12:00:31;35.72;;;15.32;;
57535;SDS011;43361;49.790;8.960;2022-12-08T12:10:40;36.10;;;13.80;;
57535;SDS011;43361;49.790;8.960;2022-12-08T12:20:45;39.55;;;13.80;;
57535;SDS011;43361;49.790;8.960;2022-12-08T12:30:52;418.83;;;184.65;;
57535;SDS011;43361;49.790;8.960;2022-12-08T12:40:57;409.25;;;179.70;;
57535;SDS011;43361;49.790;8.960;2022-12-08T12:51:00;326.67;;;138.10;;
57535;SDS011;43361;49.790;8.960;2022-12-08T13:11:56;248.35;;;109.03;;
57535;SDS011;43361;49.790;8.960;2022-12-08T13:21:57;223.77;;;103.55;;
57535;SDS011;43361;49.790;8.960;2022-12-08T13:32:00;189.43;;;90.85;;
57535;SDS011;43361;49.790;8.960;2022-12-08T13:42:01;179.15;;;82.25;;
57535;SDS011;43361;49.790;8.960;2022-12-08T13:52:04;159.75;;;74.97;;
57535;SDS011;43361;49.790;8.960;2022-12-08T14:02:11;148.85;;;67.28;;
57535;SDS011;43361;49.790;8.960;2022-12-08T14:12:17;130.02;;;59.25;;
57535;SDS011;43361;49.790;8.960;2022-12-08T14:22:17;124.10;;;57.80;;
57535;SDS011;43361;49.790;8.960;2022-12-08T14:32:21;107.85;;;54.08;;
57535;SDS011;43361;49.790;8.960;2022-12-08T14:42:23;98.60;;;51.03;;
57535;SDS011;43361;49.790;8.960;2022-12-08T14:52:25;99.55;;;50.10;;
57535;SDS011;43361;49.790;8.960;2022-12-08T15:02:27;97.63;;;48.97;;
57535;SDS011;43361;49.790;8.960;2022-12-08T15:12:31;96.32;;;47.75;;
57535;SDS011;43361;49.790;8.960;2022-12-08T15:22:33;95.80;;;45.05;;
57535;SDS011;43361;49.790;8.960;2022-12-08T15:32:35;83.68;;;43.72;;
57535;SDS011;43361;49.790;8.960;2022-12-08T15:42:35;83.18;;;40.78;;
57535;SDS011;43361;49.790;8.960;2022-12-08T15:52:37;72.60;;;36.28;;
57535;SDS011;43361;49.790;8.960;2022-12-08T16:02:37;63.42;;;32.78;;
57535;SDS011;43361;49.790;8.960;2022-12-08T16:12:39;57.30;;;30.23;;
57535;SDS011;43361;49.790;8.960;2022-12-08T16:22:58;55.47;;;26.83;;
57535;SDS011;43361;49.790;8.960;2022-12-08T16:33:00;58.53;;;25.88;;
57535;SDS011;43361;49.790;8.960;2022-12-08T16:43:00;45.70;;;25.02;;
57535;SDS011;43361;49.790;8.960;2022-12-08T16:53:03;42.25;;;22.38;;
57535;SDS011;43361;49.790;8.960;2022-12-08T17:03:04;35.83;;;21.60;;
57535;SDS011;43361;49.790;8.960;2022-12-08T17:13:06;37.05;;;19.27;;
57535;SDS011;43361;49.790;8.960;2022-12-08T17:23:06;32.38;;;19.38;;
57535;SDS011;43361;49.790;8.960;2022-12-08T17:33:08;37.72;;;20.08;;
57535;SDS011;43361;49.790;8.960;2022-12-08T17:43:09;30.83;;;18.42;;
57535;SDS011;43361;49.790;8.960;2022-12-08T17:53:10;31.25;;;16.70;;
57535;SDS011;43361;49.790;8.960;2022-12-08T18:03:11;26.00;;;16.65;;
57535;SDS011;43361;49.790;8.960;2022-12-08T18:13:13;26.77;;;14.85;;
57535;SDS011;43361;49.790;8.960;2022-12-08T18:23:13;21.98;;;12.23;;
57535;SDS011;43361;49.790;8.960;2022-12-08T18:33:15;21.30;;;12.33;;
57535;SDS011;43361;49.790;8.960;2022-12-08T18:43:15;25.63;;;11.68;;
57535;SDS011;43361;49.790;8.960;2022-12-08T18:53:17;35.28;;;11.77;;
57535;SDS011;43361;49.790;8.960;2022-12-08T19:03:17;25.27;;;11.50;;
57535;SDS011;43361;49.790;8.960;2022-12-08T19:13:19;21.17;;;10.40;;
57535;SDS011;43361;49.790;8.960;2022-12-08T19:23:20;19.23;;;10.20;;
57535;SDS011;43361;49.790;8.960;2022-12-08T19:33:21;19.55;;;9.05;;
57535;SDS011;43361;49.790;8.960;2022-12-08T19:43:22;23.10;;;8.85;;
57535;SDS011;43361;49.790;8.960;2022-12-08T19:53:42;17.73;;;8.70;;
57535;SDS011;43361;49.790;8.960;2022-12-08T20:03:43;20.17;;;9.20;;
57535;SDS011;43361;49.790;8.960;2022-12-08T20:13:45;19.05;;;8.52;;
57535;SDS011;43361;49.790;8.960;2022-12-08T20:23:46;14.18;;;7.70;;
57535;SDS011;43361;49.790;8.960;2022-12-08T20:33:51;13.90;;;8.73;;
57535;SDS011;43361;49.790;8.960;2022-12-08T20:43:51;13.23;;;7.43;;
57535;SDS011;43361;49.790;8.960;2022-12-08T20:53:53;15.88;;;7.55;;
57535;SDS011;43361;49.790;8.960;2022-12-08T21:03:54;13.07;;;7.32;;
57535;SDS011;43361;49.790;8.960;2022-12-08T21:13:55;12.05;;;7.03;;
57535;SDS011;43361;49.790;8.960;2022-12-08T21:23:56;13.65;;;7.38;;
57535;SDS011;43361;49.790;8.960;2022-12-08T21:33:58;14.27;;;7.43;;
57535;SDS011;43361;49.790;8.960;2022-12-08T21:43:58;13.90;;;6.68;;
57535;SDS011;43361;49.790;8.960;2022-12-08T21:54:00;10.55;;;5.80;;
57535;SDS011;43361;49.790;8.960;2022-12-08T22:04:00;13.80;;;6.13;;
57535;SDS011;43361;49.790;8.960;2022-12-08T22:14:02;13.88;;;6.15;;
57535;SDS011;43361;49.790;8.960;2022-12-08T22:24:02;8.57;;;5.70;;
57535;SDS011;43361;49.790;8.960;2022-12-08T22:34:04;12.65;;;5.85;;
57535;SDS011;43361;49.790;8.960;2022-12-08T22:44:05;14.38;;;5.55;;
57535;SDS011;43361;49.790;8.960;2022-12-08T22:54:08;9.13;;;4.85;;
57535;SDS011;43361;49.790;8.960;2022-12-08T23:04:09;11.05;;;5.43;;
57535;SDS011;43361;49.790;8.960;2022-12-08T23:14:11;9.50;;;5.07;;
57535;SDS011;43361;49.790;8.960;2022-12-08T23:24:12;9.73;;;4.90;;
57535;SDS011;43361;49.790;8.960;2022-12-08T23:34:14;8.18;;;4.90;;
57535;SDS011;43361;49.790;8.960;2022-12-08T23:44:15;8.60;;;4.85;;
57535;SDS011;43361;49.790;8.960;2022-12-08T23:54:17;7.68;;;4.63;;
